Thief River Falls, Minnesota
Current Conditions -  °F | °C
As of 10:15 PM on Tuesday 27 Jan 2015 (Local Time) from KTVF Reporting Station
Overcast Overcast  
Wind Chill: 21°   Ceiling: 1200
Heat Index: 30°   Visibility: 10mi
Dew Point: 27°   Wind: 10mph
Humidity: 86%   Direction: 170°S
Pressure: 29.94"   Gusts: NA
Location:  48.12°N, 96.18°W
Report Text: KTVF 280415Z AUTO 17009KT 10SM OVC012 M01/M03 A2994 RMK AO1
Loading
Personal Weather Stations






























Interactive Weather Map New forecast layout! Learn more

10-Day Weather Forecast

Advertisements
Track Severe Weather on mobile